sensor_id;sensor_type;location;lat;lon;timestamp;P1;durP1;ratioP1;P2;durP2;ratioP2
78796;SDS011;68145;52.514;13.460;2023-04-20T00:00:22;10.48;;;6.47;;
78796;SDS011;68145;52.514;13.460;2023-04-20T00:02:49;8.93;;;6.22;;
78796;SDS011;68145;52.514;13.460;2023-04-20T00:05:15;10.07;;;6.35;;
78796;SDS011;68145;52.514;13.460;2023-04-20T00:07:41;8.52;;;6.35;;
78796;SDS011;68145;52.514;13.460;2023-04-20T00:10:07;8.13;;;6.45;;
78796;SDS011;68145;52.514;13.460;2023-04-20T00:12:34;9.75;;;6.18;;
78796;SDS011;68145;52.514;13.460;2023-04-20T00:15:00;10.55;;;5.95;;
78796;SDS011;68145;52.514;13.460;2023-04-20T00:17:26;9.20;;;5.80;;
78796;SDS011;68145;52.514;13.460;2023-04-20T00:19:52;8.40;;;5.85;;
78796;SDS011;68145;52.514;13.460;2023-04-20T00:22:18;9.82;;;6.55;;
78796;SDS011;68145;52.514;13.460;2023-04-20T00:24:44;7.60;;;5.28;;
78796;SDS011;68145;52.514;13.460;2023-04-20T00:27:10;8.93;;;5.72;;
78796;SDS011;68145;52.514;13.460;2023-04-20T00:29:36;9.40;;;5.72;;
78796;SDS011;68145;52.514;13.460;2023-04-20T00:32:03;9.48;;;6.35;;
78796;SDS011;68145;52.514;13.460;2023-04-20T00:34:30;9.32;;;6.03;;
78796;SDS011;68145;52.514;13.460;2023-04-20T00:36:56;10.60;;;5.75;;
78796;SDS011;68145;52.514;13.460;2023-04-20T00:39:22;10.43;;;6.35;;
78796;SDS011;68145;52.514;13.460;2023-04-20T00:41:48;6.75;;;5.43;;
78796;SDS011;68145;52.514;13.460;2023-04-20T00:44:14;8.18;;;5.43;;
78796;SDS011;68145;52.514;13.460;2023-04-20T00:46:40;7.45;;;5.63;;
78796;SDS011;68145;52.514;13.460;2023-04-20T00:49:06;8.63;;;6.13;;
78796;SDS011;68145;52.514;13.460;2023-04-20T00:51:33;7.35;;;5.65;;
78796;SDS011;68145;52.514;13.460;2023-04-20T00:54:00;8.85;;;5.85;;
78796;SDS011;68145;52.514;13.460;2023-04-20T00:56:26;9.27;;;5.88;;
78796;SDS011;68145;52.514;13.460;2023-04-20T00:58:52;8.88;;;5.57;;
78796;SDS011;68145;52.514;13.460;2023-04-20T01:01:18;7.25;;;5.35;;
78796;SDS011;68145;52.514;13.460;2023-04-20T01:03:44;7.93;;;5.40;;
78796;SDS011;68145;52.514;13.460;2023-04-20T01:06:11;8.90;;;5.57;;
78796;SDS011;68145;52.514;13.460;2023-04-20T01:08:45;8.32;;;5.90;;
78796;SDS011;68145;52.514;13.460;2023-04-20T01:11:11;8.10;;;5.63;;
78796;SDS011;68145;52.514;13.460;2023-04-20T01:13:37;8.10;;;5.43;;
78796;SDS011;68145;52.514;13.460;2023-04-20T01:16:03;8.68;;;6.13;;
78796;SDS011;68145;52.514;13.460;2023-04-20T01:18:39;8.35;;;6.10;;
78796;SDS011;68145;52.514;13.460;2023-04-20T01:21:05;8.57;;;5.65;;
78796;SDS011;68145;52.514;13.460;2023-04-20T01:23:33;7.68;;;5.57;;
78796;SDS011;68145;52.514;13.460;2023-04-20T01:25:59;8.73;;;5.70;;
78796;SDS011;68145;52.514;13.460;2023-04-20T01:28:25;8.77;;;5.97;;
78796;SDS011;68145;52.514;13.460;2023-04-20T01:30:51;9.43;;;6.68;;
78796;SDS011;68145;52.514;13.460;2023-04-20T01:33:17;11.23;;;6.75;;
78796;SDS011;68145;52.514;13.460;2023-04-20T01:35:43;11.18;;;6.93;;
78796;SDS011;68145;52.514;13.460;2023-04-20T01:38:09;9.00;;;6.97;;
78796;SDS011;68145;52.514;13.460;2023-04-20T01:40:42;11.10;;;6.95;;
78796;SDS011;68145;52.514;13.460;2023-04-20T01:43:08;9.77;;;5.72;;
78796;SDS011;68145;52.514;13.460;2023-04-20T01:45:34;13.55;;;7.70;;
78796;SDS011;68145;52.514;13.460;2023-04-20T01:48:00;11.10;;;6.75;;
78796;SDS011;68145;52.514;13.460;2023-04-20T01:50:26;11.10;;;7.45;;
78796;SDS011;68145;52.514;13.460;2023-04-20T01:52:52;9.32;;;7.28;;
78796;SDS011;68145;52.514;13.460;2023-04-20T01:55:18;8.70;;;6.70;;
78796;SDS011;68145;52.514;13.460;2023-04-20T01:57:44;12.05;;;7.70;;
78796;SDS011;68145;52.514;13.460;2023-04-20T02:00:10;10.82;;;7.75;;
78796;SDS011;68145;52.514;13.460;2023-04-20T02:02:37;11.35;;;7.50;;
78796;SDS011;68145;52.514;13.460;2023-04-20T02:05:03;10.82;;;7.22;;
78796;SDS011;68145;52.514;13.460;2023-04-20T02:07:29;10.48;;;7.53;;
78796;SDS011;68145;52.514;13.460;2023-04-20T02:09:55;11.60;;;7.43;;
78796;SDS011;68145;52.514;13.460;2023-04-20T02:12:21;10.93;;;7.53;;
78796;SDS011;68145;52.514;13.460;2023-04-20T02:14:47;10.50;;;6.95;;
78796;SDS011;68145;52.514;13.460;2023-04-20T02:17:13;11.52;;;7.25;;
78796;SDS011;68145;52.514;13.460;2023-04-20T02:19:39;11.77;;;7.13;;
78796;SDS011;68145;52.514;13.460;2023-04-20T02:22:05;11.55;;;7.95;;
78796;SDS011;68145;52.514;13.460;2023-04-20T02:24:31;11.88;;;7.57;;
78796;SDS011;68145;52.514;13.460;2023-04-20T02:26:57;13.10;;;8.38;;
78796;SDS011;68145;52.514;13.460;2023-04-20T02:29:24;12.65;;;7.93;;
78796;SDS011;68145;52.514;13.460;2023-04-20T02:31:50;13.80;;;7.95;;
78796;SDS011;68145;52.514;13.460;2023-04-20T02:34:16;13.48;;;8.52;;
78796;SDS011;68145;52.514;13.460;2023-04-20T02:36:42;12.25;;;8.75;;
78796;SDS011;68145;52.514;13.460;2023-04-20T02:39:08;13.18;;;7.90;;
78796;SDS011;68145;52.514;13.460;2023-04-20T02:41:34;13.63;;;8.15;;
78796;SDS011;68145;52.514;13.460;2023-04-20T02:44:00;15.63;;;8.55;;
78796;SDS011;68145;52.514;13.460;2023-04-20T02:46:26;12.77;;;7.75;;
78796;SDS011;68145;52.514;13.460;2023-04-20T02:48:52;14.43;;;8.82;;
78796;SDS011;68145;52.514;13.460;2023-04-20T02:51:19;13.43;;;8.88;;
78796;SDS011;68145;52.514;13.460;2023-04-20T02:53:45;15.30;;;9.18;;
78796;SDS011;68145;52.514;13.460;2023-04-20T02:56:11;12.77;;;8.30;;
78796;SDS011;68145;52.514;13.460;2023-04-20T02:58:37;14.02;;;8.77;;
78796;SDS011;68145;52.514;13.460;2023-04-20T03:01:03;14.02;;;8.68;;
78796;SDS011;68145;52.514;13.460;2023-04-20T03:03:29;12.90;;;8.73;;
78796;SDS011;68145;52.514;13.460;2023-04-20T03:05:56;12.25;;;8.77;;
78796;SDS011;68145;52.514;13.460;2023-04-20T03:08:22;13.27;;;7.97;;
78796;SDS011;68145;52.514;13.460;2023-04-20T03:10:48;12.50;;;8.32;;
78796;SDS011;68145;52.514;13.460;2023-04-20T03:13:14;14.73;;;9.10;;
78796;SDS011;68145;52.514;13.460;2023-04-20T03:15:41;15.52;;;8.75;;
78796;SDS011;68145;52.514;13.460;2023-04-20T03:18:07;15.02;;;9.35;;
78796;SDS011;68145;52.514;13.460;2023-04-20T03:20:34;12.52;;;8.30;;
78796;SDS011;68145;52.514;13.460;2023-04-20T03:23:00;13.27;;;9.25;;
78796;SDS011;68145;52.514;13.460;2023-04-20T03:25:26;15.50;;;9.43;;
78796;SDS011;68145;52.514;13.460;2023-04-20T03:27:53;15.30;;;9.13;;
78796;SDS011;68145;52.514;13.460;2023-04-20T03:30:19;13.38;;;8.88;;
78796;SDS011;68145;52.514;13.460;2023-04-20T03:32:45;14.18;;;9.48;;
78796;SDS011;68145;52.514;13.460;2023-04-20T03:35:11;18.65;;;10.30;;
78796;SDS011;68145;52.514;13.460;2023-04-20T03:37:37;17.45;;;9.93;;
78796;SDS011;68145;52.514;13.460;2023-04-20T03:40:04;16.98;;;9.25;;
78796;SDS011;68145;52.514;13.460;2023-04-20T03:42:34;15.73;;;10.18;;
78796;SDS011;68145;52.514;13.460;2023-04-20T03:45:01;20.45;;;11.40;;
78796;SDS011;68145;52.514;13.460;2023-04-20T03:47:27;17.73;;;9.77;;
78796;SDS011;68145;52.514;13.460;2023-04-20T03:49:53;17.65;;;9.88;;
78796;SDS011;68145;52.514;13.460;2023-04-20T03:52:19;17.08;;;10.50;;
78796;SDS011;68145;52.514;13.460;2023-04-20T03:54:45;20.77;;;11.25;;
78796;SDS011;68145;52.514;13.460;2023-04-20T03:57:11;20.17;;;11.13;;
78796;SDS011;68145;52.514;13.460;2023-04-20T03:59:38;18.65;;;11.25;;
78796;SDS011;68145;52.514;13.460;2023-04-20T04:02:04;21.52;;;11.93;;
78796;SDS011;68145;52.514;13.460;2023-04-20T04:04:30;19.40;;;11.55;;
78796;SDS011;68145;52.514;13.460;2023-04-20T04:06:56;21.98;;;10.77;;
78796;SDS011;68145;52.514;13.460;2023-04-20T04:09:22;22.25;;;10.65;;
78796;SDS011;68145;52.514;13.460;2023-04-20T04:11:50;22.40;;;11.52;;
78796;SDS011;68145;52.514;13.460;2023-04-20T04:14:16;19.58;;;10.65;;
78796;SDS011;68145;52.514;13.460;2023-04-20T04:16:42;17.92;;;10.57;;
78796;SDS011;68145;52.514;13.460;2023-04-20T04:19:08;18.25;;;10.13;;
78796;SDS011;68145;52.514;13.460;2023-04-20T04:21:34;21.23;;;11.35;;
78796;SDS011;68145;52.514;13.460;2023-04-20T04:24:00;21.77;;;11.00;;
78796;SDS011;68145;52.514;13.460;2023-04-20T04:26:27;18.60;;;10.43;;
78796;SDS011;68145;52.514;13.460;2023-04-20T04:28:53;19.38;;;10.98;;
78796;SDS011;68145;52.514;13.460;2023-04-20T04:31:20;22.63;;;11.50;;
78796;SDS011;68145;52.514;13.460;2023-04-20T04:33:47;22.17;;;11.15;;
78796;SDS011;68145;52.514;13.460;2023-04-20T04:36:13;19.52;;;10.75;;
78796;SDS011;68145;52.514;13.460;2023-04-20T04:38:42;20.10;;;11.85;;
78796;SDS011;68145;52.514;13.460;2023-04-20T04:41:11;20.13;;;12.00;;
78796;SDS011;68145;52.514;13.460;2023-04-20T04:43:40;21.70;;;11.63;;
78796;SDS011;68145;52.514;13.460;2023-04-20T04:46:07;22.88;;;12.05;;
78796;SDS011;68145;52.514;13.460;2023-04-20T04:48:34;22.08;;;12.13;;
78796;SDS011;68145;52.514;13.460;2023-04-20T04:51:00;21.73;;;11.82;;
78796;SDS011;68145;52.514;13.460;2023-04-20T04:53:26;19.95;;;11.98;;
78796;SDS011;68145;52.514;13.460;2023-04-20T04:55:52;20.85;;;12.20;;
78796;SDS011;68145;52.514;13.460;2023-04-20T04:58:18;20.23;;;11.35;;
78796;SDS011;68145;52.514;13.460;2023-04-20T05:00:44;23.23;;;12.05;;
78796;SDS011;68145;52.514;13.460;2023-04-20T05:03:10;20.60;;;11.80;;
78796;SDS011;68145;52.514;13.460;2023-04-20T05:05:36;26.10;;;12.75;;
78796;SDS011;68145;52.514;13.460;2023-04-20T05:08:03;24.27;;;14.07;;
78796;SDS011;68145;52.514;13.460;2023-04-20T05:10:29;23.48;;;13.10;;
78796;SDS011;68145;52.514;13.460;2023-04-20T05:12:55;19.98;;;12.55;;
78796;SDS011;68145;52.514;13.460;2023-04-20T05:15:24;20.67;;;12.77;;
78796;SDS011;68145;52.514;13.460;2023-04-20T05:17:50;18.90;;;11.90;;
78796;SDS011;68145;52.514;13.460;2023-04-20T05:20:17;20.42;;;11.95;;
78796;SDS011;68145;52.514;13.460;2023-04-20T05:22:43;25.83;;;13.30;;
78796;SDS011;68145;52.514;13.460;2023-04-20T05:25:09;24.52;;;12.68;;
78796;SDS011;68145;52.514;13.460;2023-04-20T05:27:35;24.83;;;13.30;;
78796;SDS011;68145;52.514;13.460;2023-04-20T05:30:02;19.63;;;12.43;;
78796;SDS011;68145;52.514;13.460;2023-04-20T05:32:28;22.48;;;12.13;;
78796;SDS011;68145;52.514;13.460;2023-04-20T05:34:54;20.40;;;12.20;;
78796;SDS011;68145;52.514;13.460;2023-04-20T05:37:21;23.05;;;13.02;;
78796;SDS011;68145;52.514;13.460;2023-04-20T05:39:47;24.40;;;12.77;;
78796;SDS011;68145;52.514;13.460;2023-04-20T05:42:13;22.63;;;12.77;;
78796;SDS011;68145;52.514;13.460;2023-04-20T05:44:40;21.83;;;13.05;;
78796;SDS011;68145;52.514;13.460;2023-04-20T05:47:07;23.02;;;13.93;;
78796;SDS011;68145;52.514;13.460;2023-04-20T05:49:36;22.58;;;12.35;;
78796;SDS011;68145;52.514;13.460;2023-04-20T05:52:03;24.98;;;13.13;;
78796;SDS011;68145;52.514;13.460;2023-04-20T05:54:29;22.58;;;13.63;;
78796;SDS011;68145;52.514;13.460;2023-04-20T05:56:55;22.77;;;13.45;;
78796;SDS011;68145;52.514;13.460;2023-04-20T05:59:22;24.60;;;13.70;;
78796;SDS011;68145;52.514;13.460;2023-04-20T06:01:49;24.20;;;13.32;;
78796;SDS011;68145;52.514;13.460;2023-04-20T06:04:15;26.95;;;13.68;;
78796;SDS011;68145;52.514;13.460;2023-04-20T06:06:45;22.30;;;13.70;;
78796;SDS011;68145;52.514;13.460;2023-04-20T06:09:11;22.33;;;13.25;;
78796;SDS011;68145;52.514;13.460;2023-04-20T06:11:37;22.35;;;13.38;;
78796;SDS011;68145;52.514;13.460;2023-04-20T06:14:03;23.27;;;12.63;;
78796;SDS011;68145;52.514;13.460;2023-04-20T06:16:29;24.17;;;12.88;;
78796;SDS011;68145;52.514;13.460;2023-04-20T06:18:55;22.23;;;12.75;;
78796;SDS011;68145;52.514;13.460;2023-04-20T06:21:21;21.75;;;12.48;;
78796;SDS011;68145;52.514;13.460;2023-04-20T06:23:48;24.00;;;13.10;;
78796;SDS011;68145;52.514;13.460;2023-04-20T06:26:14;22.48;;;12.88;;
78796;SDS011;68145;52.514;13.460;2023-04-20T06:28:40;20.17;;;12.35;;
78796;SDS011;68145;52.514;13.460;2023-04-20T06:31:07;25.52;;;13.23;;
78796;SDS011;68145;52.514;13.460;2023-04-20T06:33:33;20.08;;;11.60;;
78796;SDS011;68145;52.514;13.460;2023-04-20T06:35:59;22.42;;;12.57;;
78796;SDS011;68145;52.514;13.460;2023-04-20T06:38:25;22.38;;;12.73;;
78796;SDS011;68145;52.514;13.460;2023-04-20T06:40:51;22.70;;;12.13;;
78796;SDS011;68145;52.514;13.460;2023-04-20T06:43:17;21.40;;;12.77;;
78796;SDS011;68145;52.514;13.460;2023-04-20T06:45:43;22.27;;;13.60;;
78796;SDS011;68145;52.514;13.460;2023-04-20T06:48:10;22.83;;;12.77;;
78796;SDS011;68145;52.514;13.460;2023-04-20T06:50:36;23.33;;;13.95;;
78796;SDS011;68145;52.514;13.460;2023-04-20T06:53:02;22.48;;;13.95;;
78796;SDS011;68145;52.514;13.460;2023-04-20T06:55:28;22.73;;;13.50;;
78796;SDS011;68145;52.514;13.460;2023-04-20T06:57:54;26.25;;;13.48;;
78796;SDS011;68145;52.514;13.460;2023-04-20T07:00:20;20.80;;;13.27;;
78796;SDS011;68145;52.514;13.460;2023-04-20T07:02:52;20.05;;;13.40;;
78796;SDS011;68145;52.514;13.460;2023-04-20T07:05:18;22.73;;;14.00;;
78796;SDS011;68145;52.514;13.460;2023-04-20T07:07:45;23.08;;;14.00;;
78796;SDS011;68145;52.514;13.460;2023-04-20T07:10:12;21.48;;;12.98;;
78796;SDS011;68145;52.514;13.460;2023-04-20T07:12:38;24.05;;;13.45;;
78796;SDS011;68145;52.514;13.460;2023-04-20T07:15:05;23.55;;;14.82;;
78796;SDS011;68145;52.514;13.460;2023-04-20T07:17:32;24.55;;;13.50;;
78796;SDS011;68145;52.514;13.460;2023-04-20T07:19:58;22.20;;;14.30;;
78796;SDS011;68145;52.514;13.460;2023-04-20T07:22:31;24.20;;;13.82;;
78796;SDS011;68145;52.514;13.460;2023-04-20T07:24:58;22.50;;;14.43;;
78796;SDS011;68145;52.514;13.460;2023-04-20T07:27:25;23.10;;;14.23;;
78796;SDS011;68145;52.514;13.460;2023-04-20T07:32:19;19.67;;;11.77;;
78796;SDS011;68145;52.514;13.460;2023-04-20T07:34:45;18.88;;;11.88;;
78796;SDS011;68145;52.514;13.460;2023-04-20T07:37:11;20.08;;;12.27;;
78796;SDS011;68145;52.514;13.460;2023-04-20T07:39:37;21.58;;;12.88;;
78796;SDS011;68145;52.514;13.460;2023-04-20T07:42:03;19.83;;;11.73;;
78796;SDS011;68145;52.514;13.460;2023-04-20T07:44:29;21.40;;;13.95;;
78796;SDS011;68145;52.514;13.460;2023-04-20T07:46:55;17.10;;;11.45;;
78796;SDS011;68145;52.514;13.460;2023-04-20T07:49:22;19.42;;;12.18;;
78796;SDS011;68145;52.514;13.460;2023-04-20T07:51:48;23.63;;;13.63;;
78796;SDS011;68145;52.514;13.460;2023-04-20T07:54:14;17.55;;;11.48;;
78796;SDS011;68145;52.514;13.460;2023-04-20T07:56:40;16.83;;;10.70;;
78796;SDS011;68145;52.514;13.460;2023-04-20T07:59:07;17.60;;;11.38;;
78796;SDS011;68145;52.514;13.460;2023-04-20T08:01:33;20.50;;;12.07;;
78796;SDS011;68145;52.514;13.460;2023-04-20T08:03:59;18.05;;;11.05;;
78796;SDS011;68145;52.514;13.460;2023-04-20T08:06:27;18.30;;;11.65;;
78796;SDS011;68145;52.514;13.460;2023-04-20T08:08:53;18.25;;;11.57;;
78796;SDS011;68145;52.514;13.460;2023-04-20T08:11:19;16.70;;;10.45;;
78796;SDS011;68145;52.514;13.460;2023-04-20T08:13:45;22.00;;;12.38;;
78796;SDS011;68145;52.514;13.460;2023-04-20T08:16:11;18.63;;;11.85;;
78796;SDS011;68145;52.514;13.460;2023-04-20T08:18:37;16.75;;;12.45;;
78796;SDS011;68145;52.514;13.460;2023-04-20T08:21:03;18.70;;;11.35;;
78796;SDS011;68145;52.514;13.460;2023-04-20T08:23:29;19.92;;;11.45;;
78796;SDS011;68145;52.514;13.460;2023-04-20T08:25:55;20.60;;;13.48;;
78796;SDS011;68145;52.514;13.460;2023-04-20T08:28:22;20.10;;;11.52;;
78796;SDS011;68145;52.514;13.460;2023-04-20T08:30:48;16.30;;;11.02;;
78796;SDS011;68145;52.514;13.460;2023-04-20T08:33:15;16.38;;;11.10;;
78796;SDS011;68145;52.514;13.460;2023-04-20T08:35:42;18.35;;;11.70;;
78796;SDS011;68145;52.514;13.460;2023-04-20T08:38:08;18.38;;;12.07;;
78796;SDS011;68145;52.514;13.460;2023-04-20T08:40:35;21.02;;;10.95;;
78796;SDS011;68145;52.514;13.460;2023-04-20T08:43:02;18.13;;;12.15;;
78796;SDS011;68145;52.514;13.460;2023-04-20T08:45:28;16.52;;;11.95;;
78796;SDS011;68145;52.514;13.460;2023-04-20T08:47:56;17.77;;;11.02;;
78796;SDS011;68145;52.514;13.460;2023-04-20T08:50:23;19.70;;;11.25;;
78796;SDS011;68145;52.514;13.460;2023-04-20T08:52:49;20.85;;;11.70;;
78796;SDS011;68145;52.514;13.460;2023-04-20T08:55:16;17.65;;;11.02;;
78796;SDS011;68145;52.514;13.460;2023-04-20T08:57:43;19.10;;;11.95;;
78796;SDS011;68145;52.514;13.460;2023-04-20T09:00:09;19.65;;;11.60;;
78796;SDS011;68145;52.514;13.460;2023-04-20T09:02:36;17.55;;;11.00;;
78796;SDS011;68145;52.514;13.460;2023-04-20T09:05:02;18.70;;;11.75;;
78796;SDS011;68145;52.514;13.460;2023-04-20T09:07:29;20.35;;;11.80;;
78796;SDS011;68145;52.514;13.460;2023-04-20T09:09:56;19.10;;;11.85;;
78796;SDS011;68145;52.514;13.460;2023-04-20T09:14:50;20.35;;;11.80;;
78796;SDS011;68145;52.514;13.460;2023-04-20T09:17:29;19.92;;;11.82;;
78796;SDS011;68145;52.514;13.460;2023-04-20T09:19:55;23.85;;;13.18;;
78796;SDS011;68145;52.514;13.460;2023-04-20T09:22:31;19.23;;;12.20;;
78796;SDS011;68145;52.514;13.460;2023-04-20T09:24:57;23.75;;;13.05;;
78796;SDS011;68145;52.514;13.460;2023-04-20T09:27:24;20.08;;;12.52;;
78796;SDS011;68145;52.514;13.460;2023-04-20T09:30:00;19.67;;;11.82;;
78796;SDS011;68145;52.514;13.460;2023-04-20T09:32:27;24.17;;;14.15;;
78796;SDS011;68145;52.514;13.460;2023-04-20T09:34:54;20.38;;;12.43;;
78796;SDS011;68145;52.514;13.460;2023-04-20T09:37:20;18.55;;;12.60;;
78796;SDS011;68145;52.514;13.460;2023-04-20T09:39:47;19.55;;;11.93;;
78796;SDS011;68145;52.514;13.460;2023-04-20T09:42:14;21.95;;;12.88;;
78796;SDS011;68145;52.514;13.460;2023-04-20T09:44:40;17.80;;;13.15;;
78796;SDS011;68145;52.514;13.460;2023-04-20T09:47:07;18.38;;;11.57;;
78796;SDS011;68145;52.514;13.460;2023-04-20T09:49:33;18.42;;;10.93;;
78796;SDS011;68145;52.514;13.460;2023-04-20T09:52:00;22.52;;;13.63;;
78796;SDS011;68145;52.514;13.460;2023-04-20T09:54:27;20.95;;;12.00;;
78796;SDS011;68145;52.514;13.460;2023-04-20T09:56:53;20.13;;;12.77;;
78796;SDS011;68145;52.514;13.460;2023-04-20T09:59:20;16.13;;;11.50;;
78796;SDS011;68145;52.514;13.460;2023-04-20T10:01:46;18.15;;;11.93;;
78796;SDS011;68145;52.514;13.460;2023-04-20T10:04:13;16.42;;;11.30;;
78796;SDS011;68145;52.514;13.460;2023-04-20T10:06:50;17.55;;;11.13;;
78796;SDS011;68145;52.514;13.460;2023-04-20T10:09:23;14.48;;;10.32;;
78796;SDS011;68145;52.514;13.460;2023-04-20T10:11:50;16.25;;;11.20;;
78796;SDS011;68145;52.514;13.460;2023-04-20T10:14:23;15.20;;;10.38;;
78796;SDS011;68145;52.514;13.460;2023-04-20T10:19:34;15.40;;;10.18;;
78796;SDS011;68145;52.514;13.460;2023-04-20T10:22:00;13.65;;;10.07;;
78796;SDS011;68145;52.514;13.460;2023-04-20T10:24:27;18.90;;;12.00;;
78796;SDS011;68145;52.514;13.460;2023-04-20T10:26:54;14.57;;;10.57;;
78796;SDS011;68145;52.514;13.460;2023-04-20T10:29:24;16.20;;;10.18;;
78796;SDS011;68145;52.514;13.460;2023-04-20T10:31:50;15.13;;;10.13;;
78796;SDS011;68145;52.514;13.460;2023-04-20T10:34:27;15.05;;;10.25;;
78796;SDS011;68145;52.514;13.460;2023-04-20T10:36:54;14.38;;;9.90;;
78796;SDS011;68145;52.514;13.460;2023-04-20T10:39:20;15.90;;;9.82;;
78796;SDS011;68145;52.514;13.460;2023-04-20T10:44:19;14.45;;;10.48;;
78796;SDS011;68145;52.514;13.460;2023-04-20T10:46:48;14.00;;;10.65;;
78796;SDS011;68145;52.514;13.460;2023-04-20T10:49:15;12.80;;;9.80;;
78796;SDS011;68145;52.514;13.460;2023-04-20T10:51:47;12.57;;;9.35;;
78796;SDS011;68145;52.514;13.460;2023-04-20T10:54:13;19.08;;;10.40;;
78796;SDS011;68145;52.514;13.460;2023-04-20T10:56:43;17.23;;;10.30;;
78796;SDS011;68145;52.514;13.460;2023-04-20T10:59:11;12.43;;;9.75;;
78796;SDS011;68145;52.514;13.460;2023-04-20T11:01:37;14.80;;;9.98;;
78796;SDS011;68145;52.514;13.460;2023-04-20T11:04:04;15.65;;;11.15;;
78796;SDS011;68145;52.514;13.460;2023-04-20T11:06:31;14.90;;;10.68;;
78796;SDS011;68145;52.514;13.460;2023-04-20T11:08:57;14.02;;;9.85;;
78796;SDS011;68145;52.514;13.460;2023-04-20T11:11:24;15.98;;;10.00;;
78796;SDS011;68145;52.514;13.460;2023-04-20T11:14:05;15.98;;;10.88;;
78796;SDS011;68145;52.514;13.460;2023-04-20T11:16:31;15.05;;;11.02;;
78796;SDS011;68145;52.514;13.460;2023-04-20T11:18:57;14.32;;;10.60;;
78796;SDS011;68145;52.514;13.460;2023-04-20T11:21:34;14.15;;;10.38;;
78796;SDS011;68145;52.514;13.460;2023-04-20T11:24:01;14.82;;;10.13;;
78796;SDS011;68145;52.514;13.460;2023-04-20T11:26:37;15.45;;;11.35;;
78796;SDS011;68145;52.514;13.460;2023-04-20T11:29:04;14.63;;;10.30;;
78796;SDS011;68145;52.514;13.460;2023-04-20T11:31:30;14.68;;;10.80;;
78796;SDS011;68145;52.514;13.460;2023-04-20T11:33:57;14.85;;;10.50;;
78796;SDS011;68145;52.514;13.460;2023-04-20T11:36:23;15.32;;;11.20;;
78796;SDS011;68145;52.514;13.460;2023-04-20T11:38:50;15.07;;;11.00;;
78796;SDS011;68145;52.514;13.460;2023-04-20T11:41:16;16.35;;;11.27;;
78796;SDS011;68145;52.514;13.460;2023-04-20T11:43:43;15.88;;;11.38;;
78796;SDS011;68145;52.514;13.460;2023-04-20T11:46:13;16.17;;;11.73;;
78796;SDS011;68145;52.514;13.460;2023-04-20T11:48:39;14.10;;;10.30;;
78796;SDS011;68145;52.514;13.460;2023-04-20T11:51:05;15.38;;;10.30;;
78796;SDS011;68145;52.514;13.460;2023-04-20T11:53:32;18.45;;;12.20;;
78796;SDS011;68145;52.514;13.460;2023-04-20T11:55:58;16.25;;;13.05;;
78796;SDS011;68145;52.514;13.460;2023-04-20T11:58:24;13.27;;;10.27;;
78796;SDS011;68145;52.514;13.460;2023-04-20T12:00:51;14.38;;;10.55;;
78796;SDS011;68145;52.514;13.460;2023-04-20T12:03:17;16.73;;;11.23;;
78796;SDS011;68145;52.514;13.460;2023-04-20T12:05:43;16.10;;;11.05;;
78796;SDS011;68145;52.514;13.460;2023-04-20T12:08:09;15.55;;;11.23;;
78796;SDS011;68145;52.514;13.460;2023-04-20T12:10:35;13.50;;;11.35;;
78796;SDS011;68145;52.514;13.460;2023-04-20T12:13:01;14.45;;;11.07;;
78796;SDS011;68145;52.514;13.460;2023-04-20T12:15:27;16.73;;;11.05;;
78796;SDS011;68145;52.514;13.460;2023-04-20T12:17:53;15.70;;;11.82;;
78796;SDS011;68145;52.514;13.460;2023-04-20T12:20:19;14.73;;;11.50;;
78796;SDS011;68145;52.514;13.460;2023-04-20T12:22:45;14.65;;;11.93;;
78796;SDS011;68145;52.514;13.460;2023-04-20T12:25:11;13.82;;;11.38;;
78796;SDS011;68145;52.514;13.460;2023-04-20T12:27:38;16.50;;;11.63;;
78796;SDS011;68145;52.514;13.460;2023-04-20T12:30:04;14.32;;;11.35;;
78796;SDS011;68145;52.514;13.460;2023-04-20T12:32:30;16.77;;;12.35;;
78796;SDS011;68145;52.514;13.460;2023-04-20T12:34:56;16.15;;;11.07;;
78796;SDS011;68145;52.514;13.460;2023-04-20T12:37:23;14.68;;;11.30;;
78796;SDS011;68145;52.514;13.460;2023-04-20T12:39:49;15.77;;;11.52;;
78796;SDS011;68145;52.514;13.460;2023-04-20T12:42:15;13.73;;;10.05;;
78796;SDS011;68145;52.514;13.460;2023-04-20T12:44:41;15.45;;;11.38;;
78796;SDS011;68145;52.514;13.460;2023-04-20T12:47:07;16.73;;;10.60;;
78796;SDS011;68145;52.514;13.460;2023-04-20T12:49:33;16.60;;;11.52;;
78796;SDS011;68145;52.514;13.460;2023-04-20T12:51:59;17.55;;;11.05;;
78796;SDS011;68145;52.514;13.460;2023-04-20T12:54:25;16.35;;;11.98;;
78796;SDS011;68145;52.514;13.460;2023-04-20T12:56:51;15.60;;;11.40;;
78796;SDS011;68145;52.514;13.460;2023-04-20T12:59:17;16.33;;;11.45;;
78796;SDS011;68145;52.514;13.460;2023-04-20T13:01:43;17.77;;;12.07;;
78796;SDS011;68145;52.514;13.460;2023-04-20T13:04:10;16.48;;;11.65;;
78796;SDS011;68145;52.514;13.460;2023-04-20T13:06:36;16.33;;;10.98;;
78796;SDS011;68145;52.514;13.460;2023-04-20T13:09:02;16.38;;;11.68;;
78796;SDS011;68145;52.514;13.460;2023-04-20T13:11:28;19.67;;;12.73;;
78796;SDS011;68145;52.514;13.460;2023-04-20T13:13:55;19.50;;;12.65;;
78796;SDS011;68145;52.514;13.460;2023-04-20T13:16:22;18.40;;;12.05;;
78796;SDS011;68145;52.514;13.460;2023-04-20T13:18:48;18.20;;;12.95;;
78796;SDS011;68145;52.514;13.460;2023-04-20T13:21:14;16.50;;;12.15;;
78796;SDS011;68145;52.514;13.460;2023-04-20T13:23:40;17.38;;;13.00;;
78796;SDS011;68145;52.514;13.460;2023-04-20T13:26:06;15.18;;;12.32;;
78796;SDS011;68145;52.514;13.460;2023-04-20T13:28:33;17.30;;;10.93;;
78796;SDS011;68145;52.514;13.460;2023-04-20T13:30:59;15.68;;;10.90;;
78796;SDS011;68145;52.514;13.460;2023-04-20T13:33:25;13.45;;;10.52;;
78796;SDS011;68145;52.514;13.460;2023-04-20T13:35:51;13.80;;;10.23;;
78796;SDS011;68145;52.514;13.460;2023-04-20T13:38:17;14.77;;;10.38;;
78796;SDS011;68145;52.514;13.460;2023-04-20T13:40:44;14.57;;;10.48;;
78796;SDS011;68145;52.514;13.460;2023-04-20T13:43:11;13.90;;;9.75;;
78796;SDS011;68145;52.514;13.460;2023-04-20T13:45:38;16.98;;;9.85;;
78796;SDS011;68145;52.514;13.460;2023-04-20T13:48:04;14.63;;;10.32;;
78796;SDS011;68145;52.514;13.460;2023-04-20T13:50:31;17.75;;;12.48;;
78796;SDS011;68145;52.514;13.460;2023-04-20T13:52:58;16.25;;;10.32;;
78796;SDS011;68145;52.514;13.460;2023-04-20T13:55:26;16.05;;;10.40;;
78796;SDS011;68145;52.514;13.460;2023-04-20T13:57:52;15.38;;;9.95;;
78796;SDS011;68145;52.514;13.460;2023-04-20T14:00:18;17.33;;;11.18;;
78796;SDS011;68145;52.514;13.460;2023-04-20T14:02:45;16.67;;;10.93;;
78796;SDS011;68145;52.514;13.460;2023-04-20T14:05:11;16.70;;;10.65;;
78796;SDS011;68145;52.514;13.460;2023-04-20T14:07:37;14.25;;;9.90;;
78796;SDS011;68145;52.514;13.460;2023-04-20T14:10:04;12.90;;;10.30;;
78796;SDS011;68145;52.514;13.460;2023-04-20T14:12:30;14.98;;;9.38;;
78796;SDS011;68145;52.514;13.460;2023-04-20T14:14:57;14.57;;;10.68;;
78796;SDS011;68145;52.514;13.460;2023-04-20T14:17:24;16.00;;;9.95;;
78796;SDS011;68145;52.514;13.460;2023-04-20T14:19:50;14.70;;;10.10;;